Time;durP1;ratioP1;P1;durP2;ratioP2;P2;SDS_P1;SDS_P2;PMS_P1;PMS_P2;Temp;Humidity;BMP_temperature;BMP_pressure;BME280_temperature;BME280_humidity;BME280_pressure;Samples;Min_cycle;Max_cycle;Signal;HPM_P1;HPM_P2
2021/09/23 00:00:27;;;;;;;;;;;16.00;97.70;;;;;;2078058;28;792;-59
2021/09/23 00:01:46;;;;;;;;;;;16.00;97.90;;;;;;2072812;28;731;-58
2021/09/23 00:03:11;;;;;;;;;;;16.00;97.80;;;;;;2078894;28;1427;-59
2021/09/23 00:04:34;;;;;;;;;;;16.00;97.60;;;;;;2086842;28;1411;-60
2021/09/23 00:05:54;;;;;;;;;;;16.00;97.50;;;;;;2083731;28;744;-60
2021/09/23 00:07:13;;;;;;;;;;;16.00;97.50;;;;;;2089175;28;917;-60
2021/09/23 00:08:32;;;;;;;;;;;16.00;97.50;;;;;;2089635;28;1060;-59
2021/09/23 00:09:52;;;;;;;;;;;16.00;97.90;;;;;;2082975;28;861;-60
2021/09/23 00:11:11;;;;;;;;;;;16.00;97.90;;;;;;2098474;28;706;-60
2021/09/23 00:12:30;;;;;;;;;;;16.00;97.50;;;;;;2098399;28;740;-61
2021/09/23 00:13:50;;;;;;;;;;;16.00;97.50;;;;;;2098274;28;698;-60
2021/09/23 00:15:09;;;;;;;;;;;16.00;97.50;;;;;;2098183;28;1381;-58
2021/09/23 00:16:29;;;;;;;;;;;15.90;97.50;;;;;;2097302;28;728;-59
2021/09/23 00:17:49;;;;;;;;;;;16.00;97.60;;;;;;2098399;28;717;-59
2021/09/23 00:19:08;;;;;;;;;;;16.00;97.60;;;;;;2097608;28;753;-60
2021/09/23 00:20:28;;;;;;;;;;;16.00;97.70;;;;;;2094648;28;719;-60
2021/09/23 00:21:48;;;;;;;;;;;15.90;97.60;;;;;;2094598;28;756;-59
2021/09/23 00:23:07;;;;;;;;;;;15.90;97.60;;;;;;2094376;28;764;-59
2021/09/23 00:24:27;;;;;;;;;;;15.90;97.90;;;;;;2086041;28;1480;-59
2021/09/23 00:25:46;;;;;;;;;;;16.00;98.00;;;;;;2091199;28;731;-59
2021/09/23 00:27:05;;;;;;;;;;;16.00;97.70;;;;;;2097648;28;723;-59
2021/09/23 00:28:24;;;;;;;;;;;15.90;97.60;;;;;;2098110;28;782;-57
2021/09/23 00:29:43;;;;;;;;;;;15.90;97.60;;;;;;2098138;28;713;-60
2021/09/23 00:31:02;;;;;;;;;;;15.90;97.60;;;;;;2089045;28;737;-60
2021/09/23 00:32:22;;;;;;;;;;;16.00;97.70;;;;;;2094736;28;727;-58
2021/09/23 00:33:41;;;;;;;;;;;16.00;97.80;;;;;;2105900;28;775;-60
2021/09/23 00:35:00;;;;;;;;;;;15.90;97.80;;;;;;2097505;28;1463;-59
2021/09/23 00:36:20;;;;;;;;;;;16.00;97.90;;;;;;2093817;28;702;-60
2021/09/23 00:37:39;;;;;;;;;;;15.90;97.70;;;;;;2090862;28;982;-60
2021/09/23 00:38:58;;;;;;;;;;;15.90;97.70;;;;;;2084538;28;937;-60
2021/09/23 00:40:17;;;;;;;;;;;16.00;97.90;;;;;;2094042;28;1015;-60
2021/09/23 00:41:36;;;;;;;;;;;15.90;98.10;;;;;;2088926;28;768;-57
2021/09/23 00:42:55;;;;;;;;;;;15.90;98.00;;;;;;2085881;28;616;-59
2021/09/23 00:44:15;;;;;;;;;;;15.90;98.10;;;;;;2085527;28;1342;-58
2021/09/23 00:45:34;;;;;;;;;;;15.90;97.80;;;;;;2085789;28;681;-59
2021/09/23 00:46:53;;;;;;;;;;;15.90;97.80;;;;;;2084786;28;745;-61
2021/09/23 00:48:15;;;;;;;;;;;15.90;97.80;;;;;;2085232;28;1024;-61
2021/09/23 00:49:35;;;;;;;;;;;15.90;97.80;;;;;;2093842;28;1977;-57
2021/09/23 00:50:55;;;;;;;;;;;15.90;97.80;;;;;;2097403;28;716;-60
2021/09/23 00:52:14;;;;;;;;;;;15.90;97.90;;;;;;2080746;28;735;-60
2021/09/23 00:53:34;;;;;;;;;;;15.90;98.00;;;;;;2077724;28;726;-59
2021/09/23 00:54:54;;;;;;;;;;;15.90;97.90;;;;;;2085864;28;1284;-60
2021/09/23 00:56:14;;;;;;;;;;;15.90;98.20;;;;;;2083431;28;714;-59
2021/09/23 00:57:33;;;;;;;;;;;15.90;97.90;;;;;;2082850;28;763;-59
2021/09/23 00:58:52;;;;;;;;;;;15.90;97.90;;;;;;2085789;28;739;-60
2021/09/23 01:00:12;;;;;;;;;;;15.90;97.90;;;;;;2077515;28;748;-59
2021/09/23 01:01:50;;;;;;;;;;;15.90;97.90;;;;;;2079905;28;768;-59
2021/09/23 01:03:15;;;;;;;;;;;15.90;97.90;;;;;;2083392;28;1309;-59
2021/09/23 01:04:35;;;;;;;;;;;15.90;97.80;;;;;;2094735;28;1280;-59
2021/09/23 01:05:57;;;;;;;;;;;15.90;97.90;;;;;;2080839;28;832;-57
2021/09/23 01:07:17;;;;;;;;;;;15.90;97.80;;;;;;2082898;28;978;-60
2021/09/23 01:08:37;;;;;;;;;;;15.90;97.90;;;;;;2084443;28;1173;-60
2021/09/23 01:09:57;;;;;;;;;;;15.90;97.80;;;;;;2085342;28;1003;-59
2021/09/23 01:11:15;;;;;;;;;;;15.90;97.90;;;;;;2089214;28;713;-61
2021/09/23 01:12:35;;;;;;;;;;;15.90;97.80;;;;;;2094461;28;762;-61
2021/09/23 01:13:54;;;;;;;;;;;15.90;97.90;;;;;;2105658;28;724;-59
2021/09/23 01:15:26;;;;;;;;;;;15.90;98.20;;;;;;2097196;28;718;-60
2021/09/23 01:16:45;;;;;;;;;;;15.90;97.80;;;;;;2086527;28;734;-59
2021/09/23 01:18:23;;;;;;;;;;;15.90;97.80;;;;;;2096956;28;758;-57
2021/09/23 01:19:43;;;;;;;;;;;15.90;97.80;;;;;;2097341;28;720;-59
2021/09/23 01:21:05;;;;;;;;;;;15.90;97.80;;;;;;2094058;28;777;-59
2021/09/23 01:22:25;;;;;;;;;;;15.90;97.80;;;;;;2086323;28;821;-60
2021/09/23 01:24:03;;;;;;;;;;;15.90;97.80;;;;;;2095879;28;724;-59
2021/09/23 01:25:23;;;;;;;;;;;15.90;97.80;;;;;;2088796;28;758;-61
2021/09/23 01:26:46;;;;;;;;;;;15.90;97.80;;;;;;2090798;28;735;-59
2021/09/23 01:28:24;;;;;;;;;;;15.90;97.80;;;;;;2097406;28;740;-59
2021/09/23 01:29:48;;;;;;;;;;;15.90;97.90;;;;;;2094762;28;1042;-60
2021/09/23 01:31:09;;;;;;;;;;;15.90;97.90;;;;;;2093702;28;802;-61
2021/09/23 01:32:33;;;;;;;;;;;15.90;97.90;;;;;;2080398;28;795;-60
2021/09/23 01:33:52;;;;;;;;;;;15.90;97.90;;;;;;2089316;28;1030;-59
2021/09/23 01:35:13;;;;;;;;;;;15.90;98.00;;;;;;2078845;28;879;-59
2021/09/23 01:36:33;;;;;;;;;;;15.90;98.00;;;;;;2075983;28;1053;-58
2021/09/23 01:37:52;;;;;;;;;;;15.90;98.20;;;;;;2074945;28;894;-61
2021/09/23 01:39:18;;;;;;;;;;;15.90;98.20;;;;;;2094075;28;1156;-59
2021/09/23 01:40:37;;;;;;;;;;;15.90;97.90;;;;;;2080735;28;1055;-59
2021/09/23 01:41:59;;;;;;;;;;;15.80;97.90;;;;;;2087667;28;799;-59
2021/09/23 01:43:23;;;;;;;;;;;15.80;98.00;;;;;;2088050;28;720;-58
2021/09/23 01:44:42;;;;;;;;;;;15.80;98.00;;;;;;2095575;28;1346;-59
2021/09/23 01:46:02;;;;;;;;;;;15.80;98.00;;;;;;2090388;28;725;-59
2021/09/23 01:47:21;;;;;;;;;;;15.80;98.00;;;;;;2094825;28;736;-59
2021/09/23 01:48:44;;;;;;;;;;;15.90;98.10;;;;;;2089790;28;1909;-60
2021/09/23 01:50:04;;;;;;;;;;;15.80;98.00;;;;;;2074159;28;714;-57
2021/09/23 01:51:26;;;;;;;;;;;15.80;98.00;;;;;;2079730;28;729;-56
2021/09/23 01:52:45;;;;;;;;;;;15.80;98.10;;;;;;2079132;28;726;-59
2021/09/23 01:54:07;;;;;;;;;;;15.80;98.10;;;;;;2082034;28;926;-57
2021/09/23 01:55:26;;;;;;;;;;;15.80;98.10;;;;;;2079115;28;713;-59
2021/09/23 01:56:53;;;;;;;;;;;15.80;98.10;;;;;;2084146;28;1727;-59
2021/09/23 01:58:12;;;;;;;;;;;15.80;98.10;;;;;;2074076;28;734;-60
2021/09/23 01:59:33;;;;;;;;;;;15.90;98.10;;;;;;2079941;28;728;-60
2021/09/23 02:00:58;;;;;;;;;;;15.80;98.10;;;;;;2079894;28;718;-59
2021/09/23 02:02:18;;;;;;;;;;;15.90;98.20;;;;;;2074009;28;729;-58
2021/09/23 02:03:37;;;;;;;;;;;15.90;98.20;;;;;;2085586;28;1404;-59
2021/09/23 02:05:04;;;;;;;;;;;15.80;98.10;;;;;;2090290;28;1419;-58
2021/09/23 02:06:23;;;;;;;;;;;15.80;98.20;;;;;;2089729;28;720;-59
2021/09/23 02:07:44;;;;;;;;;;;15.80;98.10;;;;;;2087395;28;984;-59
2021/09/23 02:09:06;;;;;;;;;;;15.80;98.20;;;;;;2083994;28;1898;-59
2021/09/23 02:10:27;;;;;;;;;;;15.80;98.40;;;;;;2082006;28;981;-57
2021/09/23 02:11:48;;;;;;;;;;;15.80;98.20;;;;;;2084533;28;734;-56
2021/09/23 02:13:07;;;;;;;;;;;15.80;98.20;;;;;;2087182;28;729;-58
2021/09/23 02:14:27;;;;;;;;;;;15.80;98.20;;;;;;2095282;28;1355;-59
2021/09/23 02:15:46;;;;;;;;;;;15.80;98.20;;;;;;2090263;28;741;-59
2021/09/23 02:17:05;;;;;;;;;;;15.80;98.20;;;;;;2086688;28;719;-60
2021/09/23 02:18:39;;;;;;;;;;;15.80;98.20;;;;;;2082162;28;735;-61
2021/09/23 02:19:59;;;;;;;;;;;15.80;98.20;;;;;;2094444;28;784;-60
2021/09/23 02:21:24;;;;;;;;;;;15.80;98.20;;;;;;2090344;28;749;-56
2021/09/23 02:22:45;;;;;;;;;;;15.80;98.30;;;;;;2078978;28;754;-59
2021/09/23 02:24:05;;;;;;;;;;;15.80;98.30;;;;;;2087753;28;784;-61
2021/09/23 02:25:25;;;;;;;;;;;15.80;98.30;;;;;;2087156;28;734;-60
2021/09/23 02:26:44;;;;;;;;;;;15.80;98.20;;;;;;2078498;28;737;-60
2021/09/23 02:28:04;;;;;;;;;;;15.80;98.30;;;;;;2092375;28;760;-58
2021/09/23 02:29:24;;;;;;;;;;;15.80;98.20;;;;;;2090228;28;1976;-60
2021/09/23 02:30:43;;;;;;;;;;;15.80;98.30;;;;;;2082154;28;765;-59
2021/09/23 02:32:02;;;;;;;;;;;15.80;98.60;;;;;;2078626;28;740;-58
2021/09/23 02:33:22;;;;;;;;;;;15.80;98.60;;;;;;2086687;28;796;-59
2021/09/23 02:34:41;;;;;;;;;;;15.80;98.30;;;;;;2086909;28;1316;-60
2021/09/23 02:36:01;;;;;;;;;;;15.80;98.30;;;;;;2089923;28;761;-59
2021/09/23 02:37:20;;;;;;;;;;;15.80;98.30;;;;;;2095181;28;926;-59
2021/09/23 02:38:40;;;;;;;;;;;15.80;98.30;;;;;;2085053;28;1244;-58
2021/09/23 02:39:59;;;;;;;;;;;15.80;98.30;;;;;;2076814;28;1098;-56
2021/09/23 02:41:18;;;;;;;;;;;15.80;98.30;;;;;;2092008;28;791;-59
2021/09/23 02:42:38;;;;;;;;;;;15.80;98.30;;;;;;2095289;28;732;-60
2021/09/23 02:43:57;;;;;;;;;;;15.80;98.30;;;;;;2089667;28;755;-58
2021/09/23 02:45:16;;;;;;;;;;;15.80;98.30;;;;;;2095119;28;763;-59
2021/09/23 02:46:36;;;;;;;;;;;15.80;98.30;;;;;;2088851;28;713;-57
2021/09/23 02:47:55;;;;;;;;;;;15.80;98.60;;;;;;2094095;28;863;-60
2021/09/23 02:49:14;;;;;;;;;;;15.80;98.70;;;;;;2095021;28;1902;-58
2021/09/23 02:50:33;;;;;;;;;;;15.80;98.40;;;;;;2095275;28;779;-60
2021/09/23 02:51:53;;;;;;;;;;;15.80;98.40;;;;;;2098222;28;764;-60
2021/09/23 02:53:13;;;;;;;;;;;15.80;98.40;;;;;;2098620;28;777;-57
2021/09/23 02:54:32;;;;;;;;;;;15.80;98.30;;;;;;2094081;28;1379;-58
2021/09/23 02:55:51;;;;;;;;;;;15.80;98.40;;;;;;2085808;28;740;-60
2021/09/23 02:57:11;;;;;;;;;;;15.80;98.30;;;;;;2099067;28;750;-60
2021/09/23 02:58:30;;;;;;;;;;;15.80;98.40;;;;;;2098289;28;790;-59
2021/09/23 02:59:49;;;;;;;;;;;15.80;98.40;;;;;;2086946;28;742;-59
2021/09/23 03:01:08;;;;;;;;;;;15.80;98.40;;;;;;2072173;28;1418;-60
2021/09/23 03:02:28;;;;;;;;;;;15.80;98.40;;;;;;2080497;28;720;-60
2021/09/23 03:03:47;;;;;;;;;;;15.80;98.40;;;;;;2090066;28;722;-57
2021/09/23 03:05:07;;;;;;;;;;;15.80;98.40;;;;;;2082056;28;1401;-59
2021/09/23 03:06:26;;;;;;;;;;;15.70;98.70;;;;;;2078018;28;765;-57
2021/09/23 03:07:45;;;;;;;;;;;15.80;98.50;;;;;;2083527;28;1015;-59
2021/09/23 03:09:04;;;;;;;;;;;15.80;98.40;;;;;;2086653;28;1969;-59
2021/09/23 03:10:24;;;;;;;;;;;15.70;98.40;;;;;;2080771;28;1020;-60
2021/09/23 03:11:44;;;;;;;;;;;15.80;98.50;;;;;;2081556;28;721;-59
2021/09/23 03:13:03;;;;;;;;;;;15.80;98.50;;;;;;2081748;28;717;-59
2021/09/23 03:14:23;;;;;;;;;;;15.70;98.50;;;;;;2081944;28;1262;-60
2021/09/23 03:15:42;;;;;;;;;;;15.70;98.50;;;;;;2073486;28;716;-60
2021/09/23 03:17:01;;;;;;;;;;;15.70;98.50;;;;;;2077629;28;717;-59
2021/09/23 03:18:20;;;;;;;;;;;15.70;98.50;;;;;;2078488;28;736;-60
2021/09/23 03:19:39;;;;;;;;;;;15.80;98.50;;;;;;2086747;28;722;-58
2021/09/23 03:20:59;;;;;;;;;;;15.70;98.50;;;;;;2081515;28;758;-59
2021/09/23 03:22:19;;;;;;;;;;;15.70;98.80;;;;;;2085460;28;784;-59
2021/09/23 03:23:37;;;;;;;;;;;15.70;98.50;;;;;;2081137;28;776;-58
2021/09/23 03:24:57;;;;;;;;;;;15.70;98.50;;;;;;2072737;28;1363;-61
2021/09/23 03:26:16;;;;;;;;;;;15.70;98.50;;;;;;2068837;28;719;-58
2021/09/23 03:27:35;;;;;;;;;;;15.70;98.50;;;;;;2077743;28;709;-58
2021/09/23 03:28:55;;;;;;;;;;;15.70;98.50;;;;;;2077475;28;1894;-60
2021/09/23 03:30:14;;;;;;;;;;;15.70;98.50;;;;;;2077769;28;748;-60
2021/09/23 03:31:34;;;;;;;;;;;15.70;98.50;;;;;;2081048;28;742;-59
2021/09/23 03:32:53;;;;;;;;;;;15.70;98.50;;;;;;2080931;28;729;-60
2021/09/23 03:34:12;;;;;;;;;;;15.70;98.50;;;;;;2080777;28;812;-59
2021/09/23 03:35:31;;;;;;;;;;;15.70;98.50;;;;;;2080768;28;737;-59
2021/09/23 03:36:51;;;;;;;;;;;15.70;98.50;;;;;;2080329;28;944;-59
2021/09/23 03:38:10;;;;;;;;;;;15.70;98.90;;;;;;2092499;28;1008;-60
2021/09/23 03:39:29;;;;;;;;;;;15.70;98.80;;;;;;2091840;28;984;-59
2021/09/23 03:40:49;;;;;;;;;;;15.70;98.80;;;;;;2080824;28;724;-57
2021/09/23 03:42:09;;;;;;;;;;;15.70;98.50;;;;;;2080911;28;706;-59
2021/09/23 03:43:28;;;;;;;;;;;15.70;98.50;;;;;;2072756;28;818;-59
2021/09/23 03:44:48;;;;;;;;;;;15.70;98.50;;;;;;2077669;28;1380;-60
2021/09/23 03:46:07;;;;;;;;;;;15.70;98.50;;;;;;2080754;28;769;-59
2021/09/23 03:47:26;;;;;;;;;;;15.70;98.60;;;;;;2080460;28;772;-60
2021/09/23 03:48:46;;;;;;;;;;;15.70;98.60;;;;;;2078795;28;1279;-60
2021/09/23 03:50:05;;;;;;;;;;;15.70;98.60;;;;;;2085540;28;1249;-59
2021/09/23 03:51:24;;;;;;;;;;;15.70;98.60;;;;;;2081511;28;1342;-59
2021/09/23 03:52:44;;;;;;;;;;;15.70;98.60;;;;;;2083567;28;1044;-59
2021/09/23 03:54:03;;;;;;;;;;;15.70;98.60;;;;;;2083102;28;1178;-59
2021/09/23 03:55:23;;;;;;;;;;;15.70;98.60;;;;;;2082880;28;1356;-58
2021/09/23 03:56:42;;;;;;;;;;;15.70;98.60;;;;;;2084233;28;1194;-59
2021/09/23 03:58:02;;;;;;;;;;;15.70;98.60;;;;;;2083446;28;1434;-58
2021/09/23 03:59:22;;;;;;;;;;;15.70;98.60;;;;;;2092496;28;1343;-59
2021/09/23 04:00:41;;;;;;;;;;;15.70;98.50;;;;;;2086145;28;1276;-59
2021/09/23 04:02:00;;;;;;;;;;;15.70;98.50;;;;;;2082240;28;1269;-59
2021/09/23 04:03:20;;;;;;;;;;;15.70;98.50;;;;;;2076089;28;1324;-57
2021/09/23 04:04:39;;;;;;;;;;;15.70;98.50;;;;;;2078461;28;1534;-61
2021/09/23 04:05:59;;;;;;;;;;;15.70;98.50;;;;;;2080529;28;1433;-60
2021/09/23 04:07:18;;;;;;;;;;;15.70;98.60;;;;;;2084363;28;1233;-60
2021/09/23 04:08:37;;;;;;;;;;;15.70;98.60;;;;;;2089834;28;1429;-60
2021/09/23 04:10:07;;;;;;;;;;;15.70;98.80;;;;;;2084021;28;1244;-60
2021/09/23 04:11:26;;;;;;;;;;;15.70;98.50;;;;;;2079772;28;1195;-59
2021/09/23 04:12:45;;;;;;;;;;;15.70;98.50;;;;;;2079571;28;1148;-60
2021/09/23 04:14:05;;;;;;;;;;;15.70;98.50;;;;;;2073591;28;1225;-60
2021/09/23 04:15:24;;;;;;;;;;;15.70;98.50;;;;;;2079193;28;1154;-60
2021/09/23 04:16:43;;;;;;;;;;;15.70;98.50;;;;;;2081170;28;996;-60
2021/09/23 04:18:09;;;;;;;;;;;15.70;98.50;;;;;;2082916;28;1044;-60
2021/09/23 04:19:28;;;;;;;;;;;15.70;98.40;;;;;;2074724;28;962;-59
2021/09/23 04:20:47;;;;;;;;;;;15.60;98.40;;;;;;2080570;28;1133;-60
2021/09/23 04:22:06;;;;;;;;;;;15.70;98.50;;;;;;2080058;28;1309;-60
2021/09/23 04:23:26;;;;;;;;;;;15.70;98.50;;;;;;2079572;28;943;-59
2021/09/23 04:24:45;;;;;;;;;;;15.70;98.50;;;;;;2084335;28;1439;-60
2021/09/23 04:26:04;;;;;;;;;;;15.70;98.50;;;;;;2085867;28;1262;-60
2021/09/23 04:27:23;;;;;;;;;;;15.70;98.50;;;;;;2083231;28;1206;-60
2021/09/23 04:28:43;;;;;;;;;;;15.70;98.50;;;;;;2083997;28;1612;-59
2021/09/23 04:30:03;;;;;;;;;;;15.70;98.40;;;;;;2083429;28;1072;-60
2021/09/23 04:31:23;;;;;;;;;;;15.60;98.40;;;;;;2071960;28;2175;-60
2021/09/23 04:32:43;;;;;;;;;;;15.70;98.50;;;;;;2077180;28;1148;-60
2021/09/23 04:34:02;;;;;;;;;;;15.70;98.50;;;;;;2081056;28;1306;-58
2021/09/23 04:35:22;;;;;;;;;;;15.70;98.50;;;;;;2083198;28;1033;-60
2021/09/23 04:36:41;;;;;;;;;;;15.70;98.60;;;;;;2081924;28;1077;-60
2021/09/23 04:38:01;;;;;;;;;;;15.70;98.50;;;;;;2082853;28;890;-60
2021/09/23 04:39:20;;;;;;;;;;;15.70;98.60;;;;;;2073679;28;1014;-61
2021/09/23 04:40:41;;;;;;;;;;;15.70;98.60;;;;;;2072439;28;1269;-59
2021/09/23 04:42:00;;;;;;;;;;;15.70;98.50;;;;;;2082070;28;1170;-61
2021/09/23 04:43:19;;;;;;;;;;;15.60;98.50;;;;;;2081400;28;1262;-60
2021/09/23 04:44:38;;;;;;;;;;;15.60;98.50;;;;;;2084650;28;1425;-60
2021/09/23 04:45:58;;;;;;;;;;;15.70;98.50;;;;;;2079612;28;1408;-61
2021/09/23 04:47:17;;;;;;;;;;;15.70;98.60;;;;;;2083524;28;1432;-60
2021/09/23 04:48:37;;;;;;;;;;;15.60;98.60;;;;;;2083467;28;1261;-60
2021/09/23 04:49:56;;;;;;;;;;;15.70;98.50;;;;;;2074823;28;1056;-60
2021/09/23 04:51:15;;;;;;;;;;;15.60;98.50;;;;;;2074591;28;1228;-60
2021/09/23 04:52:35;;;;;;;;;;;15.60;98.60;;;;;;2077419;28;1114;-60
2021/09/23 04:53:55;;;;;;;;;;;15.60;98.60;;;;;;2080957;28;1380;-60
2021/09/23 04:55:14;;;;;;;;;;;15.60;98.60;;;;;;2075478;28;1116;-60
2021/09/23 04:56:34;;;;;;;;;;;15.60;98.60;;;;;;2086678;28;1197;-60
2021/09/23 04:57:53;;;;;;;;;;;15.60;98.90;;;;;;2076762;28;1258;-60
2021/09/23 04:59:13;;;;;;;;;;;15.60;98.60;;;;;;2088650;28;1200;-60
2021/09/23 05:00:35;;;;;;;;;;;15.60;98.60;;;;;;2084083;28;1234;-60
2021/09/23 05:01:57;;;;;;;;;;;15.60;98.60;;;;;;2076248;28;1275;-59
2021/09/23 05:03:18;;;;;;;;;;;15.60;98.70;;;;;;2084583;28;999;-59
2021/09/23 05:04:37;;;;;;;;;;;15.60;98.70;;;;;;2085644;28;1423;-59
2021/09/23 05:05:56;;;;;;;;;;;15.60;99.00;;;;;;2077768;28;1157;-60
2021/09/23 05:07:16;;;;;;;;;;;15.60;99.00;;;;;;2091424;28;1526;-58
2021/09/23 05:08:35;;;;;;;;;;;15.60;98.70;;;;;;2086371;28;1347;-60
2021/09/23 05:09:54;;;;;;;;;;;15.60;98.70;;;;;;2091407;28;1164;-60
2021/09/23 05:11:14;;;;;;;;;;;15.60;98.70;;;;;;2073842;28;1232;-59
2021/09/23 05:12:34;;;;;;;;;;;15.60;98.80;;;;;;2082731;28;1059;-61
2021/09/23 05:13:55;;;;;;;;;;;15.60;98.80;;;;;;2085183;28;1257;-59
2021/09/23 05:15:14;;;;;;;;;;;15.60;98.80;;;;;;2084309;28;1183;-60
2021/09/23 05:16:34;;;;;;;;;;;15.60;98.80;;;;;;2083324;28;1099;-60
2021/09/23 05:17:53;;;;;;;;;;;15.60;98.80;;;;;;2088500;28;1210;-60
2021/09/23 05:19:12;;;;;;;;;;;15.60;98.80;;;;;;2086677;28;1246;-60
2021/09/23 05:20:32;;;;;;;;;;;15.60;98.80;;;;;;2095952;28;1293;-60
2021/09/23 05:21:51;;;;;;;;;;;15.60;98.80;;;;;;2084059;28;1360;-60
2021/09/23 05:23:11;;;;;;;;;;;15.60;98.80;;;;;;2085577;28;1243;-60
2021/09/23 05:24:30;;;;;;;;;;;15.60;98.80;;;;;;2087908;28;1452;-61
2021/09/23 05:25:49;;;;;;;;;;;15.60;98.80;;;;;;2087034;28;1220;-60
2021/09/23 05:27:09;;;;;;;;;;;15.60;98.80;;;;;;2084921;28;1135;-59
2021/09/23 05:28:28;;;;;;;;;;;15.60;98.90;;;;;;2084056;28;1239;-61
2021/09/23 05:29:47;;;;;;;;;;;15.60;98.80;;;;;;2085130;28;2046;-60
2021/09/23 05:31:07;;;;;;;;;;;15.60;98.90;;;;;;2081335;28;1437;-59
2021/09/23 05:32:27;;;;;;;;;;;15.60;98.80;;;;;;2080555;28;1250;-59
2021/09/23 05:33:46;;;;;;;;;;;15.60;98.80;;;;;;2086905;28;1361;-59
2021/09/23 05:35:05;;;;;;;;;;;15.60;98.80;;;;;;2084218;28;1463;-60
2021/09/23 05:36:25;;;;;;;;;;;15.60;98.80;;;;;;2088065;28;1409;-58
2021/09/23 05:37:44;;;;;;;;;;;15.60;98.80;;;;;;2086602;28;1184;-60
2021/09/23 05:39:04;;;;;;;;;;;15.60;98.90;;;;;;2076683;28;1256;-59
2021/09/23 05:40:24;;;;;;;;;;;15.60;98.90;;;;;;2082619;28;920;-60
2021/09/23 05:41:44;;;;;;;;;;;15.60;98.90;;;;;;2095959;28;1194;-57
2021/09/23 05:43:03;;;;;;;;;;;15.60;98.90;;;;;;2075978;28;1215;-59
2021/09/23 05:44:25;;;;;;;;;;;15.60;98.90;;;;;;2080328;28;1480;-59
2021/09/23 05:45:44;;;;;;;;;;;15.60;98.90;;;;;;2085436;28;1218;-60
2021/09/23 05:47:03;;;;;;;;;;;15.60;98.90;;;;;;2095228;28;1078;-60
2021/09/23 05:48:23;;;;;;;;;;;15.50;99.10;;;;;;2082981;28;1187;-60
2021/09/23 05:49:42;;;;;;;;;;;15.60;99.20;;;;;;2081540;28;1977;-59
2021/09/23 05:51:02;;;;;;;;;;;15.50;98.80;;;;;;2080361;28;1204;-58
2021/09/23 05:52:21;;;;;;;;;;;15.60;98.90;;;;;;2085078;28;1154;-58
2021/09/23 05:53:41;;;;;;;;;;;15.60;98.80;;;;;;2086730;28;1111;-61
2021/09/23 05:55:00;;;;;;;;;;;15.60;98.90;;;;;;2083319;28;1445;-60
2021/09/23 05:56:20;;;;;;;;;;;15.50;98.80;;;;;;2081501;28;1334;-60
2021/09/23 05:57:39;;;;;;;;;;;15.60;98.90;;;;;;2084593;28;1164;-61
2021/09/23 05:58:59;;;;;;;;;;;15.50;98.80;;;;;;2086910;28;1314;-59
2021/09/23 06:00:20;;;;;;;;;;;15.50;98.80;;;;;;2083084;28;1198;-60
2021/09/23 06:01:39;;;;;;;;;;;15.60;98.90;;;;;;2085128;28;1174;-59
2021/09/23 06:02:59;;;;;;;;;;;15.50;98.90;;;;;;2087589;28;1098;-60
2021/09/23 06:04:19;;;;;;;;;;;15.60;98.80;;;;;;2084263;28;1899;-61
2021/09/23 06:05:38;;;;;;;;;;;15.50;98.80;;;;;;2082864;28;1270;-60
2021/09/23 06:06:57;;;;;;;;;;;15.50;98.80;;;;;;2080699;28;1182;-56
2021/09/23 06:08:16;;;;;;;;;;;15.50;98.80;;;;;;2084493;28;1310;-61
2021/09/23 06:09:36;;;;;;;;;;;15.60;98.90;;;;;;2086010;28;1902;-58
2021/09/23 06:10:55;;;;;;;;;;;15.60;98.60;;;;;;2085186;28;1224;-60
2021/09/23 06:12:14;;;;;;;;;;;15.60;98.70;;;;;;2087759;28;1423;-57
2021/09/23 06:13:33;;;;;;;;;;;15.60;99.90;;;;;;2086154;28;1100;-57
2021/09/23 06:14:53;;;;;;;;;;;15.60;99.40;;;;;;2084206;28;1394;-59
2021/09/23 06:16:12;;;;;;;;;;;15.60;98.90;;;;;;2086965;28;1518;-60
2021/09/23 06:17:31;;;;;;;;;;;15.60;98.90;;;;;;2082001;28;1185;-59
2021/09/23 06:18:51;;;;;;;;;;;15.60;98.90;;;;;;2086579;28;1265;-59
2021/09/23 06:20:10;;;;;;;;;;;15.50;99.10;;;;;;2084519;28;1393;-59
2021/09/23 06:21:30;;;;;;;;;;;15.50;98.90;;;;;;2081882;28;1271;-57
2021/09/23 06:22:51;;;;;;;;;;;15.50;99.10;;;;;;2092280;28;1384;-58
2021/09/23 06:24:10;;;;;;;;;;;15.50;99.40;;;;;;2091458;28;1181;-58
2021/09/23 06:25:29;;;;;;;;;;;15.50;99.70;;;;;;2084366;28;1118;-59
2021/09/23 06:26:49;;;;;;;;;;;15.50;99.90;;;;;;2086261;28;1146;-59
2021/09/23 06:28:09;;;;;;;;;;;15.50;99.90;;;;;;2081018;28;1052;-58
2021/09/23 06:29:28;;;;;;;;;;;15.50;99.90;;;;;;2087321;28;2012;-60
2021/09/23 06:30:47;;;;;;;;;;;15.50;99.80;;;;;;2090501;28;1234;-60
2021/09/23 06:32:06;;;;;;;;;;;15.50;99.80;;;;;;2092369;28;1034;-60
2021/09/23 06:33:25;;;;;;;;;;;15.50;99.80;;;;;;2095118;28;1025;-57
2021/09/23 06:34:44;;;;;;;;;;;15.50;99.80;;;;;;2083027;28;1388;-60
2021/09/23 06:36:03;;;;;;;;;;;15.50;99.90;;;;;;2086678;28;760;-59
2021/09/23 06:37:23;;;;;;;;;;;15.50;99.90;;;;;;2073273;28;1033;-57
2021/09/23 06:38:42;;;;;;;;;;;15.50;99.90;;;;;;2091106;28;1016;-61
2021/09/23 06:40:01;;;;;;;;;;;15.60;99.90;;;;;;2085744;28;1092;-60
2021/09/23 06:41:20;;;;;;;;;;;15.60;99.90;;;;;;2098444;28;788;-58
2021/09/23 06:42:41;;;;;;;;;;;15.60;99.90;;;;;;2086767;28;750;-57
2021/09/23 06:44:02;;;;;;;;;;;15.60;99.90;;;;;;2095183;28;803;-59
2021/09/23 06:45:22;;;;;;;;;;;15.60;99.90;;;;;;2098719;28;733;-61
2021/09/23 06:46:41;;;;;;;;;;;15.70;99.90;;;;;;2093827;28;1416;-56
2021/09/23 06:48:00;;;;;;;;;;;15.70;99.90;;;;;;2078170;28;985;-59
2021/09/23 06:49:23;;;;;;;;;;;15.70;99.90;;;;;;2082027;28;1979;-60
2021/09/23 06:50:42;;;;;;;;;;;15.70;99.90;;;;;;2082521;28;743;-56
2021/09/23 06:52:02;;;;;;;;;;;15.70;99.90;;;;;;2082387;28;757;-58
2021/09/23 06:53:21;;;;;;;;;;;15.70;99.90;;;;;;2082125;28;826;-58
2021/09/23 06:54:40;;;;;;;;;;;15.70;99.90;;;;;;2082225;28;1441;-60
2021/09/23 06:56:00;;;;;;;;;;;15.70;99.90;;;;;;2082288;28;716;-59
2021/09/23 06:57:19;;;;;;;;;;;15.80;99.90;;;;;;2081519;28;748;-60
2021/09/23 06:58:57;;;;;;;;;;;15.80;99.90;;;;;;2080841;28;729;-60
2021/09/23 07:00:22;;;;;;;;;;;15.70;99.90;;;;;;2081725;28;755;-60
2021/09/23 07:02:08;;;;;;;;;;;15.70;99.90;;;;;;2066195;28;1303;-60
2021/09/23 07:03:56;;;;;;;;;;;15.70;99.90;;;;;;2082049;28;728;-59
2021/09/23 07:05:32;;;;;;;;;;;15.70;99.90;;;;;;2081583;28;718;-57
2021/09/23 07:06:53;;;;;;;;;;;15.70;99.90;;;;;;2081420;28;1006;-59
2021/09/23 07:08:18;;;;;;;;;;;15.60;99.90;;;;;;2083152;28;1267;-61
2021/09/23 07:09:37;;;;;;;;;;;15.60;99.90;;;;;;2082804;28;1902;-60
2021/09/23 07:11:05;;;;;;;;;;;15.60;99.90;;;;;;2085849;28;732;-57
2021/09/23 07:12:25;;;;;;;;;;;15.70;99.90;;;;;;2084780;28;750;-58
2021/09/23 07:13:44;;;;;;;;;;;15.70;99.90;;;;;;2086699;28;737;-62
2021/09/23 07:15:04;;;;;;;;;;;15.70;99.90;;;;;;2081515;28;1360;-58
2021/09/23 07:16:22;;;;;;;;;;;15.70;99.90;;;;;;2069477;28;783;-58
2021/09/23 07:17:42;;;;;;;;;;;15.80;99.90;;;;;;2074944;28;715;-54
2021/09/23 07:19:01;;;;;;;;;;;15.80;99.90;;;;;;2078359;28;738;-57
2021/09/23 07:20:20;;;;;;;;;;;15.80;99.90;;;;;;2078368;28;762;-56
2021/09/23 07:21:39;;;;;;;;;;;15.80;99.90;;;;;;2086647;28;758;-56
2021/09/23 07:22:59;;;;;;;;;;;15.80;99.90;;;;;;2081223;28;712;-58
2021/09/23 07:24:18;;;;;;;;;;;15.80;99.90;;;;;;2086494;28;1378;-56
2021/09/23 07:25:38;;;;;;;;;;;15.80;99.90;;;;;;2076569;28;739;-54
2021/09/23 07:26:58;;;;;;;;;;;15.80;99.90;;;;;;2082914;28;760;-60
2021/09/23 07:28:18;;;;;;;;;;;15.80;99.90;;;;;;2085360;28;722;-60
2021/09/23 07:29:37;;;;;;;;;;;15.80;99.90;;;;;;2089854;28;1960;-55
2021/09/23 07:30:56;;;;;;;;;;;15.80;99.90;;;;;;2084737;28;785;-61
2021/09/23 07:32:16;;;;;;;;;;;15.80;99.90;;;;;;2086217;28;772;-59
2021/09/23 07:33:35;;;;;;;;;;;15.80;99.90;;;;;;2076348;28;717;-61
2021/09/23 07:34:54;;;;;;;;;;;15.80;99.90;;;;;;2078479;28;1377;-60
2021/09/23 07:36:13;;;;;;;;;;;15.80;99.90;;;;;;2080613;28;728;-61
2021/09/23 07:37:33;;;;;;;;;;;15.80;99.90;;;;;;2092316;28;988;-59
2021/09/23 07:38:53;;;;;;;;;;;15.80;99.90;;;;;;2081995;28;918;-61
2021/09/23 07:40:12;;;;;;;;;;;15.80;99.90;;;;;;2093076;28;1088;-58
2021/09/23 07:41:32;;;;;;;;;;;15.80;99.90;;;;;;2084717;28;715;-60
2021/09/23 07:42:52;;;;;;;;;;;15.80;99.90;;;;;;2081942;28;722;-60
2021/09/23 07:44:11;;;;;;;;;;;15.80;99.90;;;;;;2081405;28;709;-60
2021/09/23 07:45:31;;;;;;;;;;;15.80;99.90;;;;;;2081208;28;772;-60
2021/09/23 07:46:51;;;;;;;;;;;15.70;99.90;;;;;;2093740;28;720;-60
2021/09/23 07:48:11;;;;;;;;;;;15.70;99.90;;;;;;2087275;28;858;-61
2021/09/23 07:49:30;;;;;;;;;;;15.70;99.90;;;;;;2072852;28;1964;-60
2021/09/23 07:50:49;;;;;;;;;;;15.70;99.90;;;;;;2078163;28;734;-58
2021/09/23 07:52:09;;;;;;;;;;;15.70;99.90;;;;;;2078239;28;777;-59
2021/09/23 07:53:30;;;;;;;;;;;15.70;99.90;;;;;;2078139;28;784;-60
2021/09/23 07:54:55;;;;;;;;;;;15.70;99.90;;;;;;2081239;28;1365;-59
2021/09/23 07:56:14;;;;;;;;;;;15.70;99.90;;;;;;2086114;28;1705;-60
2021/09/23 07:57:34;;;;;;;;;;;15.70;99.90;;;;;;2084271;28;1094;-57